sensor_id;sensor_type;location;lat;lon;timestamp;P1;durP1;ratioP1;P2;durP2;ratioP2
7324;SDS011;3703;48.016;7.802;2023-04-27T00:02:31;6.30;;;4.20;;
7324;SDS011;3703;48.016;7.802;2023-04-27T00:05:19;7.13;;;4.73;;
7324;SDS011;3703;48.016;7.802;2023-04-27T00:08:08;7.90;;;4.80;;
7324;SDS011;3703;48.016;7.802;2023-04-27T00:10:56;7.27;;;5.27;;
7324;SDS011;3703;48.016;7.802;2023-04-27T00:13:44;6.13;;;5.33;;
7324;SDS011;3703;48.016;7.802;2023-04-27T00:16:31;7.37;;;4.83;;
7324;SDS011;3703;48.016;7.802;2023-04-27T00:19:19;6.97;;;4.63;;
7324;SDS011;3703;48.016;7.802;2023-04-27T00:22:07;6.97;;;5.00;;
7324;SDS011;3703;48.016;7.802;2023-04-27T00:24:57;6.73;;;5.17;;
7324;SDS011;3703;48.016;7.802;2023-04-27T00:27:44;8.13;;;4.70;;
7324;SDS011;3703;48.016;7.802;2023-04-27T00:30:32;6.33;;;4.30;;
7324;SDS011;3703;48.016;7.802;2023-04-27T00:33:20;5.27;;;4.17;;
7324;SDS011;3703;48.016;7.802;2023-04-27T00:36:08;5.10;;;4.43;;
7324;SDS011;3703;48.016;7.802;2023-04-27T00:38:55;7.13;;;5.30;;
7324;SDS011;3703;48.016;7.802;2023-04-27T00:41:44;7.90;;;5.50;;
7324;SDS011;3703;48.016;7.802;2023-04-27T00:44:32;7.87;;;5.43;;
7324;SDS011;3703;48.016;7.802;2023-04-27T00:47:19;7.47;;;5.40;;
7324;SDS011;3703;48.016;7.802;2023-04-27T00:50:07;7.57;;;5.33;;
7324;SDS011;3703;48.016;7.802;2023-04-27T00:52:56;8.53;;;5.47;;
7324;SDS011;3703;48.016;7.802;2023-04-27T00:55:44;6.80;;;4.90;;
7324;SDS011;3703;48.016;7.802;2023-04-27T00:58:34;4.87;;;4.33;;
7324;SDS011;3703;48.016;7.802;2023-04-27T01:01:21;6.57;;;5.23;;
7324;SDS011;3703;48.016;7.802;2023-04-27T01:04:10;6.40;;;5.23;;
7324;SDS011;3703;48.016;7.802;2023-04-27T01:06:58;6.77;;;4.63;;
7324;SDS011;3703;48.016;7.802;2023-04-27T01:09:46;7.63;;;5.17;;
7324;SDS011;3703;48.016;7.802;2023-04-27T01:12:34;6.53;;;4.63;;
7324;SDS011;3703;48.016;7.802;2023-04-27T01:15:23;6.57;;;4.90;;
7324;SDS011;3703;48.016;7.802;2023-04-27T01:18:11;5.63;;;5.03;;
7324;SDS011;3703;48.016;7.802;2023-04-27T01:20:59;6.47;;;5.03;;
7324;SDS011;3703;48.016;7.802;2023-04-27T01:23:48;6.77;;;4.90;;
7324;SDS011;3703;48.016;7.802;2023-04-27T01:26:35;5.80;;;4.83;;
7324;SDS011;3703;48.016;7.802;2023-04-27T01:29:23;5.50;;;4.90;;
7324;SDS011;3703;48.016;7.802;2023-04-27T01:32:11;6.13;;;5.13;;
7324;SDS011;3703;48.016;7.802;2023-04-27T01:34:58;8.13;;;5.10;;
7324;SDS011;3703;48.016;7.802;2023-04-27T01:37:46;5.97;;;4.70;;
7324;SDS011;3703;48.016;7.802;2023-04-27T01:40:35;7.10;;;4.47;;
7324;SDS011;3703;48.016;7.802;2023-04-27T01:43:23;6.53;;;4.53;;
7324;SDS011;3703;48.016;7.802;2023-04-27T01:46:11;7.13;;;5.47;;
7324;SDS011;3703;48.016;7.802;2023-04-27T01:49:00;7.60;;;4.90;;
7324;SDS011;3703;48.016;7.802;2023-04-27T01:51:47;6.50;;;4.87;;
7324;SDS011;3703;48.016;7.802;2023-04-27T01:54:34;6.10;;;4.80;;
7324;SDS011;3703;48.016;7.802;2023-04-27T01:57:23;5.97;;;4.90;;
7324;SDS011;3703;48.016;7.802;2023-04-27T02:00:11;5.87;;;4.57;;
7324;SDS011;3703;48.016;7.802;2023-04-27T02:03:00;8.87;;;4.87;;
7324;SDS011;3703;48.016;7.802;2023-04-27T02:05:50;5.77;;;5.10;;
7324;SDS011;3703;48.016;7.802;2023-04-27T02:08:38;8.00;;;4.57;;
7324;SDS011;3703;48.016;7.802;2023-04-27T02:11:25;8.73;;;5.23;;
7324;SDS011;3703;48.016;7.802;2023-04-27T02:14:14;7.63;;;5.77;;
7324;SDS011;3703;48.016;7.802;2023-04-27T02:17:02;7.20;;;5.00;;
7324;SDS011;3703;48.016;7.802;2023-04-27T02:19:50;6.30;;;5.07;;
7324;SDS011;3703;48.016;7.802;2023-04-27T02:22:39;7.93;;;4.60;;
7324;SDS011;3703;48.016;7.802;2023-04-27T02:25:28;5.70;;;4.67;;
7324;SDS011;3703;48.016;7.802;2023-04-27T02:28:16;8.43;;;5.10;;
7324;SDS011;3703;48.016;7.802;2023-04-27T02:31:05;5.63;;;4.80;;
7324;SDS011;3703;48.016;7.802;2023-04-27T02:33:52;7.17;;;5.63;;
7324;SDS011;3703;48.016;7.802;2023-04-27T02:36:40;11.47;;;5.83;;
7324;SDS011;3703;48.016;7.802;2023-04-27T02:39:28;5.80;;;5.20;;
7324;SDS011;3703;48.016;7.802;2023-04-27T02:42:15;6.77;;;4.67;;
7324;SDS011;3703;48.016;7.802;2023-04-27T02:45:03;6.70;;;5.07;;
7324;SDS011;3703;48.016;7.802;2023-04-27T02:47:54;6.73;;;4.50;;
7324;SDS011;3703;48.016;7.802;2023-04-27T02:50:42;6.10;;;4.80;;
7324;SDS011;3703;48.016;7.802;2023-04-27T02:53:30;7.23;;;5.30;;
7324;SDS011;3703;48.016;7.802;2023-04-27T02:56:18;6.60;;;4.80;;
7324;SDS011;3703;48.016;7.802;2023-04-27T02:59:05;8.17;;;5.07;;
7324;SDS011;3703;48.016;7.802;2023-04-27T03:01:52;6.70;;;5.03;;
7324;SDS011;3703;48.016;7.802;2023-04-27T03:04:41;7.13;;;4.87;;
7324;SDS011;3703;48.016;7.802;2023-04-27T03:07:29;5.87;;;5.30;;
7324;SDS011;3703;48.016;7.802;2023-04-27T03:10:17;7.50;;;5.03;;
7324;SDS011;3703;48.016;7.802;2023-04-27T03:13:04;8.33;;;5.23;;
7324;SDS011;3703;48.016;7.802;2023-04-27T03:15:51;6.33;;;4.77;;
7324;SDS011;3703;48.016;7.802;2023-04-27T03:18:39;7.77;;;5.03;;
7324;SDS011;3703;48.016;7.802;2023-04-27T03:21:28;5.67;;;4.43;;
7324;SDS011;3703;48.016;7.802;2023-04-27T03:24:16;7.37;;;5.10;;
7324;SDS011;3703;48.016;7.802;2023-04-27T03:27:03;6.83;;;5.50;;
7324;SDS011;3703;48.016;7.802;2023-04-27T03:29:51;7.53;;;4.83;;
7324;SDS011;3703;48.016;7.802;2023-04-27T03:32:39;7.90;;;4.80;;
7324;SDS011;3703;48.016;7.802;2023-04-27T03:35:26;6.90;;;5.17;;
7324;SDS011;3703;48.016;7.802;2023-04-27T03:38:15;7.87;;;4.83;;
7324;SDS011;3703;48.016;7.802;2023-04-27T03:41:03;8.53;;;4.77;;
7324;SDS011;3703;48.016;7.802;2023-04-27T03:43:50;6.43;;;4.80;;
7324;SDS011;3703;48.016;7.802;2023-04-27T03:46:38;7.10;;;4.40;;
7324;SDS011;3703;48.016;7.802;2023-04-27T03:49:25;5.23;;;4.60;;
7324;SDS011;3703;48.016;7.802;2023-04-27T03:52:13;6.40;;;4.73;;
7324;SDS011;3703;48.016;7.802;2023-04-27T03:55:02;7.23;;;5.10;;
7324;SDS011;3703;48.016;7.802;2023-04-27T03:57:51;5.60;;;4.07;;
7324;SDS011;3703;48.016;7.802;2023-04-27T04:00:39;6.20;;;4.70;;
7324;SDS011;3703;48.016;7.802;2023-04-27T04:03:26;7.17;;;4.53;;
7324;SDS011;3703;48.016;7.802;2023-04-27T04:06:14;6.23;;;4.57;;
7324;SDS011;3703;48.016;7.802;2023-04-27T04:09:01;7.63;;;3.57;;
7324;SDS011;3703;48.016;7.802;2023-04-27T04:11:51;5.07;;;4.57;;
7324;SDS011;3703;48.016;7.802;2023-04-27T04:14:39;6.47;;;4.57;;
7324;SDS011;3703;48.016;7.802;2023-04-27T04:17:27;6.43;;;4.53;;
7324;SDS011;3703;48.016;7.802;2023-04-27T04:20:14;12.70;;;5.03;;
7324;SDS011;3703;48.016;7.802;2023-04-27T04:23:02;9.00;;;5.10;;
7324;SDS011;3703;48.016;7.802;2023-04-27T04:25:50;7.70;;;5.00;;
7324;SDS011;3703;48.016;7.802;2023-04-27T04:28:38;5.13;;;4.30;;
7324;SDS011;3703;48.016;7.802;2023-04-27T04:31:26;8.63;;;4.93;;
7324;SDS011;3703;48.016;7.802;2023-04-27T04:34:14;6.33;;;4.77;;
7324;SDS011;3703;48.016;7.802;2023-04-27T04:37:02;6.43;;;5.13;;
7324;SDS011;3703;48.016;7.802;2023-04-27T04:39:49;8.57;;;4.70;;
7324;SDS011;3703;48.016;7.802;2023-04-27T04:42:37;9.33;;;5.37;;
7324;SDS011;3703;48.016;7.802;2023-04-27T04:45:27;6.10;;;4.97;;
7324;SDS011;3703;48.016;7.802;2023-04-27T04:48:14;6.37;;;4.67;;
7324;SDS011;3703;48.016;7.802;2023-04-27T04:51:03;7.53;;;4.63;;
7324;SDS011;3703;48.016;7.802;2023-04-27T04:53:55;6.53;;;4.97;;
7324;SDS011;3703;48.016;7.802;2023-04-27T04:56:44;5.33;;;3.73;;
7324;SDS011;3703;48.016;7.802;2023-04-27T04:59:32;7.87;;;4.80;;
7324;SDS011;3703;48.016;7.802;2023-04-27T05:02:21;8.20;;;5.67;;
7324;SDS011;3703;48.016;7.802;2023-04-27T05:05:08;6.40;;;4.50;;
7324;SDS011;3703;48.016;7.802;2023-04-27T05:07:56;5.40;;;4.90;;
7324;SDS011;3703;48.016;7.802;2023-04-27T05:10:47;6.87;;;4.27;;
7324;SDS011;3703;48.016;7.802;2023-04-27T05:13:36;6.13;;;4.17;;
7324;SDS011;3703;48.016;7.802;2023-04-27T05:16:24;6.43;;;4.90;;
7324;SDS011;3703;48.016;7.802;2023-04-27T05:19:13;7.83;;;5.83;;
7324;SDS011;3703;48.016;7.802;2023-04-27T05:22:02;9.50;;;5.63;;
7324;SDS011;3703;48.016;7.802;2023-04-27T05:24:50;8.67;;;5.47;;
7324;SDS011;3703;48.016;7.802;2023-04-27T05:27:38;5.97;;;4.90;;
7324;SDS011;3703;48.016;7.802;2023-04-27T05:30:25;7.73;;;5.20;;
7324;SDS011;3703;48.016;7.802;2023-04-27T05:33:13;8.43;;;4.83;;
7324;SDS011;3703;48.016;7.802;2023-04-27T05:36:02;6.90;;;4.03;;
7324;SDS011;3703;48.016;7.802;2023-04-27T05:38:51;7.13;;;4.47;;
7324;SDS011;3703;48.016;7.802;2023-04-27T05:41:38;8.73;;;4.90;;
7324;SDS011;3703;48.016;7.802;2023-04-27T05:44:26;8.90;;;4.90;;
7324;SDS011;3703;48.016;7.802;2023-04-27T05:47:13;7.20;;;4.83;;
7324;SDS011;3703;48.016;7.802;2023-04-27T05:50:01;8.53;;;5.33;;
7324;SDS011;3703;48.016;7.802;2023-04-27T05:52:50;9.40;;;5.60;;
7324;SDS011;3703;48.016;7.802;2023-04-27T05:55:37;8.90;;;5.83;;
7324;SDS011;3703;48.016;7.802;2023-04-27T05:58:25;9.20;;;5.87;;
7324;SDS011;3703;48.016;7.802;2023-04-27T06:01:12;7.70;;;5.80;;
7324;SDS011;3703;48.016;7.802;2023-04-27T06:04:00;8.13;;;5.70;;
7324;SDS011;3703;48.016;7.802;2023-04-27T06:06:48;9.40;;;5.60;;
7324;SDS011;3703;48.016;7.802;2023-04-27T06:09:37;8.53;;;5.80;;
7324;SDS011;3703;48.016;7.802;2023-04-27T06:12:24;10.43;;;7.30;;
7324;SDS011;3703;48.016;7.802;2023-04-27T06:15:12;9.60;;;6.93;;
7324;SDS011;3703;48.016;7.802;2023-04-27T06:17:59;9.60;;;6.53;;
7324;SDS011;3703;48.016;7.802;2023-04-27T06:20:47;12.13;;;6.77;;
7324;SDS011;3703;48.016;7.802;2023-04-27T06:23:35;8.20;;;6.03;;
7324;SDS011;3703;48.016;7.802;2023-04-27T06:26:24;9.47;;;6.23;;
7324;SDS011;3703;48.016;7.802;2023-04-27T06:29:11;12.00;;;5.47;;
7324;SDS011;3703;48.016;7.802;2023-04-27T06:31:59;9.87;;;5.77;;
7324;SDS011;3703;48.016;7.802;2023-04-27T06:34:46;8.63;;;5.40;;
7324;SDS011;3703;48.016;7.802;2023-04-27T06:37:35;9.70;;;5.63;;
7324;SDS011;3703;48.016;7.802;2023-04-27T06:40:22;6.67;;;5.53;;
7324;SDS011;3703;48.016;7.802;2023-04-27T06:43:12;6.07;;;4.97;;
7324;SDS011;3703;48.016;7.802;2023-04-27T06:46:00;9.30;;;5.60;;
7324;SDS011;3703;48.016;7.802;2023-04-27T06:48:47;7.80;;;5.30;;
7324;SDS011;3703;48.016;7.802;2023-04-27T06:51:36;9.90;;;5.63;;
7324;SDS011;3703;48.016;7.802;2023-04-27T06:54:24;8.43;;;5.40;;
7324;SDS011;3703;48.016;7.802;2023-04-27T06:57:12;6.53;;;5.10;;
7324;SDS011;3703;48.016;7.802;2023-04-27T07:00:01;7.83;;;4.97;;
7324;SDS011;3703;48.016;7.802;2023-04-27T07:02:49;8.27;;;5.87;;
7324;SDS011;3703;48.016;7.802;2023-04-27T07:05:37;9.23;;;5.77;;
7324;SDS011;3703;48.016;7.802;2023-04-27T07:08:24;8.33;;;5.80;;
7324;SDS011;3703;48.016;7.802;2023-04-27T07:11:12;6.60;;;5.37;;
7324;SDS011;3703;48.016;7.802;2023-04-27T07:14:00;9.17;;;6.20;;
7324;SDS011;3703;48.016;7.802;2023-04-27T07:16:49;10.70;;;6.23;;
7324;SDS011;3703;48.016;7.802;2023-04-27T07:19:37;9.97;;;6.17;;
7324;SDS011;3703;48.016;7.802;2023-04-27T07:22:24;8.77;;;5.27;;
7324;SDS011;3703;48.016;7.802;2023-04-27T07:25:13;7.67;;;5.30;;
7324;SDS011;3703;48.016;7.802;2023-04-27T07:28:01;5.83;;;4.90;;
7324;SDS011;3703;48.016;7.802;2023-04-27T07:30:48;7.80;;;5.50;;
7324;SDS011;3703;48.016;7.802;2023-04-27T07:33:37;8.57;;;5.33;;
7324;SDS011;3703;48.016;7.802;2023-04-27T07:36:25;22.07;;;16.03;;
7324;SDS011;3703;48.016;7.802;2023-04-27T07:39:13;8.80;;;6.70;;
7324;SDS011;3703;48.016;7.802;2023-04-27T07:42:01;15.37;;;9.30;;
7324;SDS011;3703;48.016;7.802;2023-04-27T07:44:51;8.77;;;6.43;;
7324;SDS011;3703;48.016;7.802;2023-04-27T07:47:39;7.70;;;5.83;;
7324;SDS011;3703;48.016;7.802;2023-04-27T07:50:29;8.70;;;5.17;;
7324;SDS011;3703;48.016;7.802;2023-04-27T07:53:18;9.83;;;5.40;;
7324;SDS011;3703;48.016;7.802;2023-04-27T07:56:06;7.13;;;5.23;;
7324;SDS011;3703;48.016;7.802;2023-04-27T07:58:54;9.90;;;5.33;;
7324;SDS011;3703;48.016;7.802;2023-04-27T08:01:42;9.07;;;5.67;;
7324;SDS011;3703;48.016;7.802;2023-04-27T08:04:29;7.37;;;5.30;;
7324;SDS011;3703;48.016;7.802;2023-04-27T08:07:18;10.27;;;4.83;;
7324;SDS011;3703;48.016;7.802;2023-04-27T08:10:06;7.30;;;5.67;;
7324;SDS011;3703;48.016;7.802;2023-04-27T08:12:54;6.47;;;5.37;;
7324;SDS011;3703;48.016;7.802;2023-04-27T08:15:42;7.73;;;4.70;;
7324;SDS011;3703;48.016;7.802;2023-04-27T08:18:29;8.03;;;5.77;;
7324;SDS011;3703;48.016;7.802;2023-04-27T08:21:17;7.23;;;4.83;;
7324;SDS011;3703;48.016;7.802;2023-04-27T08:24:06;6.93;;;5.43;;
7324;SDS011;3703;48.016;7.802;2023-04-27T08:26:53;8.23;;;4.87;;
7324;SDS011;3703;48.016;7.802;2023-04-27T08:29:45;8.50;;;5.90;;
7324;SDS011;3703;48.016;7.802;2023-04-27T08:32:33;8.27;;;5.20;;
7324;SDS011;3703;48.016;7.802;2023-04-27T08:35:21;8.87;;;4.93;;
7324;SDS011;3703;48.016;7.802;2023-04-27T08:38:08;6.30;;;5.07;;
7324;SDS011;3703;48.016;7.802;2023-04-27T08:40:57;6.37;;;5.13;;
7324;SDS011;3703;48.016;7.802;2023-04-27T08:43:45;6.30;;;5.30;;
7324;SDS011;3703;48.016;7.802;2023-04-27T08:46:35;7.07;;;4.93;;
7324;SDS011;3703;48.016;7.802;2023-04-27T08:49:24;9.87;;;5.40;;
7324;SDS011;3703;48.016;7.802;2023-04-27T08:52:11;7.47;;;5.87;;
7324;SDS011;3703;48.016;7.802;2023-04-27T08:55:00;8.10;;;4.80;;
7324;SDS011;3703;48.016;7.802;2023-04-27T08:57:56;6.43;;;5.30;;
7324;SDS011;3703;48.016;7.802;2023-04-27T09:00:46;7.63;;;4.80;;
7324;SDS011;3703;48.016;7.802;2023-04-27T09:03:36;6.50;;;4.40;;
7324;SDS011;3703;48.016;7.802;2023-04-27T09:06:30;6.53;;;4.47;;
7324;SDS011;3703;48.016;7.802;2023-04-27T09:09:22;7.57;;;5.10;;
7324;SDS011;3703;48.016;7.802;2023-04-27T09:12:13;6.13;;;4.67;;
7324;SDS011;3703;48.016;7.802;2023-04-27T09:15:05;5.77;;;4.17;;
7324;SDS011;3703;48.016;7.802;2023-04-27T09:17:54;4.37;;;3.97;;
7324;SDS011;3703;48.016;7.802;2023-04-27T09:20:43;6.57;;;4.63;;
7324;SDS011;3703;48.016;7.802;2023-04-27T09:23:32;7.03;;;5.00;;
7324;SDS011;3703;48.016;7.802;2023-04-27T09:26:21;8.83;;;6.27;;
7324;SDS011;3703;48.016;7.802;2023-04-27T09:29:10;5.23;;;4.33;;
7324;SDS011;3703;48.016;7.802;2023-04-27T09:31:59;6.10;;;4.50;;
7324;SDS011;3703;48.016;7.802;2023-04-27T09:34:46;6.90;;;4.80;;
7324;SDS011;3703;48.016;7.802;2023-04-27T09:37:34;5.60;;;4.63;;
7324;SDS011;3703;48.016;7.802;2023-04-27T09:40:22;5.50;;;3.93;;
7324;SDS011;3703;48.016;7.802;2023-04-27T09:43:12;6.20;;;4.50;;
7324;SDS011;3703;48.016;7.802;2023-04-27T09:46:02;6.47;;;4.07;;
7324;SDS011;3703;48.016;7.802;2023-04-27T09:48:52;5.47;;;3.50;;
7324;SDS011;3703;48.016;7.802;2023-04-27T09:51:42;5.80;;;4.23;;
7324;SDS011;3703;48.016;7.802;2023-04-27T09:54:30;5.47;;;4.23;;
7324;SDS011;3703;48.016;7.802;2023-04-27T09:57:21;6.50;;;3.70;;
7324;SDS011;3703;48.016;7.802;2023-04-27T10:00:19;4.57;;;4.03;;
7324;SDS011;3703;48.016;7.802;2023-04-27T10:03:22;4.73;;;3.87;;
7324;SDS011;3703;48.016;7.802;2023-04-27T10:09:39;3.37;;;2.43;;
7324;SDS011;3703;48.016;7.802;2023-04-27T10:12:31;7.07;;;4.13;;
7324;SDS011;3703;48.016;7.802;2023-04-27T10:15:24;3.70;;;3.30;;
7324;SDS011;3703;48.016;7.802;2023-04-27T10:18:23;3.17;;;2.50;;
7324;SDS011;3703;48.016;7.802;2023-04-27T10:21:13;2.57;;;2.37;;
7324;SDS011;3703;48.016;7.802;2023-04-27T10:24:06;3.30;;;2.53;;
7324;SDS011;3703;48.016;7.802;2023-04-27T10:26:56;4.50;;;2.90;;
7324;SDS011;3703;48.016;7.802;2023-04-27T10:29:50;2.97;;;2.60;;
7324;SDS011;3703;48.016;7.802;2023-04-27T10:32:48;4.43;;;2.20;;
7324;SDS011;3703;48.016;7.802;2023-04-27T10:35:37;3.73;;;3.03;;
7324;SDS011;3703;48.016;7.802;2023-04-27T10:38:27;4.70;;;2.70;;
7324;SDS011;3703;48.016;7.802;2023-04-27T10:41:18;2.93;;;2.00;;
7324;SDS011;3703;48.016;7.802;2023-04-27T10:44:15;3.60;;;2.60;;
7324;SDS011;3703;48.016;7.802;2023-04-27T10:47:11;3.07;;;2.77;;
7324;SDS011;3703;48.016;7.802;2023-04-27T10:50:00;4.60;;;2.60;;
7324;SDS011;3703;48.016;7.802;2023-04-27T10:52:50;2.47;;;2.20;;
7324;SDS011;3703;48.016;7.802;2023-04-27T10:55:38;3.30;;;2.20;;
7324;SDS011;3703;48.016;7.802;2023-04-27T10:58:27;4.10;;;2.70;;
7324;SDS011;3703;48.016;7.802;2023-04-27T11:01:22;2.20;;;2.00;;
7324;SDS011;3703;48.016;7.802;2023-04-27T11:04:10;4.67;;;3.27;;
7324;SDS011;3703;48.016;7.802;2023-04-27T11:06:57;4.43;;;3.67;;
7324;SDS011;3703;48.016;7.802;2023-04-27T11:09:47;4.57;;;3.20;;
7324;SDS011;3703;48.016;7.802;2023-04-27T11:12:35;3.40;;;2.90;;
7324;SDS011;3703;48.016;7.802;2023-04-27T11:15:24;3.50;;;2.50;;
7324;SDS011;3703;48.016;7.802;2023-04-27T11:18:11;4.63;;;3.10;;
7324;SDS011;3703;48.016;7.802;2023-04-27T11:21:05;3.40;;;2.67;;
7324;SDS011;3703;48.016;7.802;2023-04-27T11:23:54;4.43;;;2.50;;
7324;SDS011;3703;48.016;7.802;2023-04-27T11:26:42;5.27;;;3.10;;
7324;SDS011;3703;48.016;7.802;2023-04-27T11:29:36;5.20;;;3.30;;
7324;SDS011;3703;48.016;7.802;2023-04-27T11:32:25;4.20;;;2.63;;
7324;SDS011;3703;48.016;7.802;2023-04-27T11:35:13;2.40;;;2.17;;
7324;SDS011;3703;48.016;7.802;2023-04-27T11:38:01;3.00;;;2.30;;
7324;SDS011;3703;48.016;7.802;2023-04-27T11:40:58;3.83;;;2.70;;
7324;SDS011;3703;48.016;7.802;2023-04-27T11:43:48;2.83;;;2.20;;
7324;SDS011;3703;48.016;7.802;2023-04-27T11:46:36;3.17;;;2.33;;
7324;SDS011;3703;48.016;7.802;2023-04-27T11:49:27;2.47;;;2.20;;
7324;SDS011;3703;48.016;7.802;2023-04-27T11:52:14;3.27;;;2.37;;
7324;SDS011;3703;48.016;7.802;2023-04-27T11:55:02;5.93;;;2.73;;
7324;SDS011;3703;48.016;7.802;2023-04-27T11:57:55;2.50;;;2.00;;
7324;SDS011;3703;48.016;7.802;2023-04-27T12:00:44;2.50;;;2.20;;
7324;SDS011;3703;48.016;7.802;2023-04-27T12:03:32;2.97;;;2.10;;
7324;SDS011;3703;48.016;7.802;2023-04-27T12:06:24;2.53;;;1.90;;
7324;SDS011;3703;48.016;7.802;2023-04-27T12:09:14;3.23;;;2.33;;
7324;SDS011;3703;48.016;7.802;2023-04-27T12:12:01;1.90;;;1.80;;
7324;SDS011;3703;48.016;7.802;2023-04-27T12:14:49;4.63;;;2.57;;
7324;SDS011;3703;48.016;7.802;2023-04-27T12:17:37;4.13;;;2.10;;
7324;SDS011;3703;48.016;7.802;2023-04-27T12:20:25;2.30;;;2.10;;
7324;SDS011;3703;48.016;7.802;2023-04-27T12:23:14;2.07;;;1.90;;
7324;SDS011;3703;48.016;7.802;2023-04-27T12:26:02;6.20;;;2.47;;
7324;SDS011;3703;48.016;7.802;2023-04-27T12:28:50;2.27;;;1.97;;
7324;SDS011;3703;48.016;7.802;2023-04-27T12:31:37;1.87;;;1.77;;
7324;SDS011;3703;48.016;7.802;2023-04-27T12:34:25;1.90;;;1.80;;
7324;SDS011;3703;48.016;7.802;2023-04-27T12:37:13;3.17;;;1.97;;
7324;SDS011;3703;48.016;7.802;2023-04-27T12:40:02;2.43;;;1.70;;
7324;SDS011;3703;48.016;7.802;2023-04-27T12:42:51;1.93;;;1.73;;
7324;SDS011;3703;48.016;7.802;2023-04-27T12:45:39;2.27;;;1.80;;
7324;SDS011;3703;48.016;7.802;2023-04-27T12:48:27;4.83;;;1.80;;
7324;SDS011;3703;48.016;7.802;2023-04-27T12:51:14;1.83;;;1.60;;
7324;SDS011;3703;48.016;7.802;2023-04-27T12:54:02;1.70;;;1.60;;
7324;SDS011;3703;48.016;7.802;2023-04-27T12:56:52;2.00;;;1.53;;
7324;SDS011;3703;48.016;7.802;2023-04-27T12:59:39;1.50;;;1.40;;
7324;SDS011;3703;48.016;7.802;2023-04-27T13:02:27;1.73;;;1.63;;
7324;SDS011;3703;48.016;7.802;2023-04-27T13:05:15;3.53;;;1.57;;
7324;SDS011;3703;48.016;7.802;2023-04-27T13:08:03;1.73;;;1.40;;
7324;SDS011;3703;48.016;7.802;2023-04-27T13:10:51;1.70;;;1.40;;
7324;SDS011;3703;48.016;7.802;2023-04-27T13:13:40;1.93;;;1.40;;
7324;SDS011;3703;48.016;7.802;2023-04-27T13:16:28;1.60;;;1.50;;
7324;SDS011;3703;48.016;7.802;2023-04-27T13:19:16;2.13;;;1.50;;
7324;SDS011;3703;48.016;7.802;2023-04-27T13:22:03;4.50;;;1.67;;
7324;SDS011;3703;48.016;7.802;2023-04-27T13:24:54;1.97;;;1.43;;
7324;SDS011;3703;48.016;7.802;2023-04-27T13:27:42;2.20;;;1.37;;
7324;SDS011;3703;48.016;7.802;2023-04-27T13:30:31;1.17;;;1.07;;
7324;SDS011;3703;48.016;7.802;2023-04-27T13:33:19;1.10;;;1.00;;
7324;SDS011;3703;48.016;7.802;2023-04-27T13:36:07;2.53;;;1.50;;
7324;SDS011;3703;48.016;7.802;2023-04-27T13:38:55;1.57;;;1.33;;
7324;SDS011;3703;48.016;7.802;2023-04-27T13:41:43;5.30;;;1.57;;
7324;SDS011;3703;48.016;7.802;2023-04-27T13:44:31;2.10;;;1.30;;
7324;SDS011;3703;48.016;7.802;2023-04-27T13:47:20;1.67;;;1.40;;
7324;SDS011;3703;48.016;7.802;2023-04-27T13:50:08;2.93;;;1.50;;
7324;SDS011;3703;48.016;7.802;2023-04-27T13:52:56;2.70;;;1.43;;
7324;SDS011;3703;48.016;7.802;2023-04-27T13:55:44;1.90;;;1.20;;
7324;SDS011;3703;48.016;7.802;2023-04-27T13:58:31;1.30;;;1.20;;
7324;SDS011;3703;48.016;7.802;2023-04-27T14:01:19;1.37;;;1.20;;
7324;SDS011;3703;48.016;7.802;2023-04-27T14:04:08;1.80;;;1.00;;
7324;SDS011;3703;48.016;7.802;2023-04-27T14:06:55;2.67;;;1.30;;
7324;SDS011;3703;48.016;7.802;2023-04-27T14:09:43;1.40;;;1.30;;
7324;SDS011;3703;48.016;7.802;2023-04-27T14:12:31;1.73;;;1.30;;
7324;SDS011;3703;48.016;7.802;2023-04-27T14:15:18;1.30;;;1.20;;
7324;SDS011;3703;48.016;7.802;2023-04-27T14:18:06;1.90;;;1.40;;
7324;SDS011;3703;48.016;7.802;2023-04-27T14:20:56;1.77;;;1.33;;
7324;SDS011;3703;48.016;7.802;2023-04-27T14:23:43;4.80;;;1.53;;
7324;SDS011;3703;48.016;7.802;2023-04-27T14:26:31;1.60;;;1.50;;
7324;SDS011;3703;48.016;7.802;2023-04-27T14:29:18;2.40;;;1.40;;
7324;SDS011;3703;48.016;7.802;2023-04-27T14:32:07;1.57;;;1.37;;
7324;SDS011;3703;48.016;7.802;2023-04-27T14:34:54;1.87;;;1.50;;
7324;SDS011;3703;48.016;7.802;2023-04-27T14:37:43;2.90;;;1.50;;
7324;SDS011;3703;48.016;7.802;2023-04-27T14:40:31;2.70;;;1.60;;
7324;SDS011;3703;48.016;7.802;2023-04-27T14:43:18;1.60;;;1.50;;
7324;SDS011;3703;48.016;7.802;2023-04-27T14:46:06;2.50;;;1.47;;
7324;SDS011;3703;48.016;7.802;2023-04-27T14:48:53;3.20;;;1.70;;
7324;SDS011;3703;48.016;7.802;2023-04-27T14:51:41;2.03;;;1.50;;
7324;SDS011;3703;48.016;7.802;2023-04-27T14:54:30;2.80;;;1.40;;
7324;SDS011;3703;48.016;7.802;2023-04-27T14:57:18;1.70;;;1.43;;
7324;SDS011;3703;48.016;7.802;2023-04-27T15:00:06;2.77;;;1.53;;
7324;SDS011;3703;48.016;7.802;2023-04-27T15:02:55;3.57;;;1.60;;
7324;SDS011;3703;48.016;7.802;2023-04-27T15:05:43;1.50;;;1.40;;
7324;SDS011;3703;48.016;7.802;2023-04-27T15:08:30;3.87;;;1.60;;
7324;SDS011;3703;48.016;7.802;2023-04-27T15:11:19;1.70;;;1.60;;
7324;SDS011;3703;48.016;7.802;2023-04-27T15:14:07;1.33;;;1.23;;
7324;SDS011;3703;48.016;7.802;2023-04-27T15:16:55;2.13;;;1.57;;
7324;SDS011;3703;48.016;7.802;2023-04-27T15:19:43;2.30;;;2.10;;
7324;SDS011;3703;48.016;7.802;2023-04-27T15:22:30;3.27;;;1.50;;
7324;SDS011;3703;48.016;7.802;2023-04-27T15:25:18;2.03;;;1.47;;
7324;SDS011;3703;48.016;7.802;2023-04-27T15:28:07;1.67;;;1.57;;
7324;SDS011;3703;48.016;7.802;2023-04-27T15:30:55;4.60;;;2.10;;
7324;SDS011;3703;48.016;7.802;2023-04-27T15:33:42;2.30;;;1.60;;
7324;SDS011;3703;48.016;7.802;2023-04-27T15:36:30;1.70;;;1.60;;
7324;SDS011;3703;48.016;7.802;2023-04-27T15:39:18;2.13;;;1.63;;
7324;SDS011;3703;48.016;7.802;2023-04-27T15:42:05;2.10;;;1.90;;
7324;SDS011;3703;48.016;7.802;2023-04-27T15:44:54;1.57;;;1.47;;
7324;SDS011;3703;48.016;7.802;2023-04-27T15:47:42;2.10;;;1.83;;
7324;SDS011;3703;48.016;7.802;2023-04-27T15:50:30;2.03;;;1.63;;
7324;SDS011;3703;48.016;7.802;2023-04-27T15:53:17;2.43;;;1.60;;
7324;SDS011;3703;48.016;7.802;2023-04-27T15:56:05;4.80;;;1.90;;
7324;SDS011;3703;48.016;7.802;2023-04-27T15:58:53;1.90;;;1.53;;
7324;SDS011;3703;48.016;7.802;2023-04-27T16:01:41;2.30;;;1.60;;
7324;SDS011;3703;48.016;7.802;2023-04-27T16:04:29;2.70;;;1.73;;
7324;SDS011;3703;48.016;7.802;2023-04-27T16:07:16;1.97;;;1.50;;
7324;SDS011;3703;48.016;7.802;2023-04-27T16:10:04;3.13;;;1.77;;
7324;SDS011;3703;48.016;7.802;2023-04-27T16:12:54;2.13;;;1.90;;
7324;SDS011;3703;48.016;7.802;2023-04-27T16:15:41;4.57;;;2.30;;
7324;SDS011;3703;48.016;7.802;2023-04-27T16:18:30;3.00;;;2.13;;
7324;SDS011;3703;48.016;7.802;2023-04-27T16:21:19;1.73;;;1.50;;
7324;SDS011;3703;48.016;7.802;2023-04-27T16:24:06;3.00;;;2.20;;
7324;SDS011;3703;48.016;7.802;2023-04-27T16:26:54;5.67;;;2.57;;
7324;SDS011;3703;48.016;7.802;2023-04-27T16:29:42;5.90;;;3.07;;
7324;SDS011;3703;48.016;7.802;2023-04-27T16:32:30;3.00;;;2.10;;
7324;SDS011;3703;48.016;7.802;2023-04-27T16:35:19;4.63;;;2.83;;
7324;SDS011;3703;48.016;7.802;2023-04-27T16:38:06;5.77;;;2.90;;
7324;SDS011;3703;48.016;7.802;2023-04-27T16:40:54;2.37;;;2.00;;
7324;SDS011;3703;48.016;7.802;2023-04-27T16:43:42;1.97;;;1.70;;
7324;SDS011;3703;48.016;7.802;2023-04-27T16:46:30;2.20;;;1.60;;
7324;SDS011;3703;48.016;7.802;2023-04-27T16:49:18;3.33;;;1.87;;
7324;SDS011;3703;48.016;7.802;2023-04-27T16:52:07;2.00;;;1.70;;
7324;SDS011;3703;48.016;7.802;2023-04-27T16:54:55;1.97;;;1.73;;
7324;SDS011;3703;48.016;7.802;2023-04-27T16:57:43;3.63;;;1.93;;
7324;SDS011;3703;48.016;7.802;2023-04-27T17:00:32;2.50;;;1.83;;
7324;SDS011;3703;48.016;7.802;2023-04-27T17:03:20;3.13;;;2.10;;
7324;SDS011;3703;48.016;7.802;2023-04-27T17:06:07;2.30;;;2.10;;
7324;SDS011;3703;48.016;7.802;2023-04-27T17:08:56;4.27;;;2.07;;
7324;SDS011;3703;48.016;7.802;2023-04-27T17:11:44;2.03;;;1.60;;
7324;SDS011;3703;48.016;7.802;2023-04-27T17:14:31;2.70;;;1.90;;
7324;SDS011;3703;48.016;7.802;2023-04-27T17:17:19;1.90;;;1.77;;
7324;SDS011;3703;48.016;7.802;2023-04-27T17:20:07;1.90;;;1.70;;
7324;SDS011;3703;48.016;7.802;2023-04-27T17:22:56;1.60;;;1.50;;
7324;SDS011;3703;48.016;7.802;2023-04-27T17:25:45;3.10;;;2.03;;
7324;SDS011;3703;48.016;7.802;2023-04-27T17:28:32;2.57;;;1.40;;
7324;SDS011;3703;48.016;7.802;2023-04-27T17:31:20;2.30;;;1.70;;